To NAV CANADA Home Page Login to a new session Search on AWWS site Disclaimer Vers la page française équivalente Tips FAQ What's new on the site To the Forecasts and Observations / NOTAM section To "File a Flight Plan" website Publications and other links Update of the User's profile FIC Telephone Numbers My Weather Data Folder Route Weather Data Regional Weather Data Local Weather Data To the Forecasts and Observations / NOTAM section
Request Generated 10/05/2022 at 19:14:48 UTC . Weather information available at that time is displayed.

METAR/TAF

MONTREAL/ST-HUBERT/QC    (show WxCam)

METAR CYHU 051900Z AUTO 26004KT 210V280 9SM CLR 20/M04 A2997 RMK SLP152 DENSITY ALT 700FT=
METAR CYHU 051800Z AUTO 24005KT 9SM CLR 20/03 A2999 RMK SLP158 DENSITY ALT 600FT=
METAR CYHU 051700Z AUTO VRB02KT 9SM CLR 18/04 A3001 RMK SLP166 DENSITY ALT 400FT=

TAF CYHU 051754Z 0518/0618 VRB03KT P6SM FEW240
BECMG 0518/0520 19008KT
FM061000 20005KT P6SM FEW012 SCT150
BECMG 0615/0616 23012KT
RMK FCST BASED ON AUTO OBS. NXT FCST BY 060000Z=
Your time UTC time
Weather data provided by Environment Canada and NAV CANADA